sensor_id;sensor_type;location;lat;lon;timestamp;pressure;altitude;pressure_sealevel;temperature;humidity
55538;BME280;41383;51.418;7.286;2023-03-03T00:01:21;100530.59;;;3.61;73.25
55538;BME280;41383;51.418;7.286;2023-03-03T00:03:49;100534.28;;;3.53;73.18
55538;BME280;41383;51.418;7.286;2023-03-03T00:06:15;100534.66;;;3.50;72.82
55538;BME280;41383;51.418;7.286;2023-03-03T00:08:40;100530.91;;;3.37;73.61
55538;BME280;41383;51.418;7.286;2023-03-03T00:11:07;100533.09;;;2.98;74.20
55538;BME280;41383;51.418;7.286;2023-03-03T00:13:43;100544.66;;;3.21;74.62
55538;BME280;41383;51.418;7.286;2023-03-03T00:18:41;100547.00;;;3.31;73.63
55538;BME280;41383;51.418;7.286;2023-03-03T00:21:21;100550.28;;;3.26;74.38
55538;BME280;41383;51.418;7.286;2023-03-03T00:23:47;100548.72;;;3.38;73.85
55538;BME280;41383;51.418;7.286;2023-03-03T00:26:29;100550.00;;;3.43;73.57
55538;BME280;41383;51.418;7.286;2023-03-03T00:28:55;100546.72;;;3.54;74.01
55538;BME280;41383;51.418;7.286;2023-03-03T00:31:33;100542.97;;;3.48;72.82
55538;BME280;41383;51.418;7.286;2023-03-03T00:36:43;100542.81;;;3.57;73.15
55538;BME280;41383;51.418;7.286;2023-03-03T00:39:36;100543.25;;;3.60;73.31
55538;BME280;41383;51.418;7.286;2023-03-03T00:42:13;100546.81;;;3.68;73.09
55538;BME280;41383;51.418;7.286;2023-03-03T00:44:41;100548.41;;;3.55;73.22
55538;BME280;41383;51.418;7.286;2023-03-03T00:47:35;100550.31;;;3.61;72.95
55538;BME280;41383;51.418;7.286;2023-03-03T00:52:34;100549.34;;;3.76;72.90
55538;BME280;41383;51.418;7.286;2023-03-03T00:55:00;100558.47;;;3.75;73.07
55538;BME280;41383;51.418;7.286;2023-03-03T00:57:25;100553.47;;;3.72;72.89
55538;BME280;41383;51.418;7.286;2023-03-03T00:59:50;100549.69;;;3.59;73.15
55538;BME280;41383;51.418;7.286;2023-03-03T01:02:15;100560.94;;;3.34;73.55
55538;BME280;41383;51.418;7.286;2023-03-03T01:04:43;100555.81;;;3.46;73.82
55538;BME280;41383;51.418;7.286;2023-03-03T01:07:12;100564.84;;;3.32;73.50
55538;BME280;41383;51.418;7.286;2023-03-03T01:09:37;100562.69;;;3.20;74.19
55538;BME280;41383;51.418;7.286;2023-03-03T01:12:03;100562.34;;;3.30;74.01
55538;BME280;41383;51.418;7.286;2023-03-03T01:14:28;100551.97;;;3.27;73.48
55538;BME280;41383;51.418;7.286;2023-03-03T01:16:53;100551.34;;;3.32;73.54
55538;BME280;41383;51.418;7.286;2023-03-03T01:19:19;100557.94;;;2.94;75.25
55538;BME280;41383;51.418;7.286;2023-03-03T01:21:44;100558.00;;;3.00;75.32
55538;BME280;41383;51.418;7.286;2023-03-03T01:24:09;100555.88;;;3.24;74.89
55538;BME280;41383;51.418;7.286;2023-03-03T01:26:35;100558.22;;;3.34;74.02
55538;BME280;41383;51.418;7.286;2023-03-03T01:29:00;100562.03;;;3.47;73.54
55538;BME280;41383;51.418;7.286;2023-03-03T01:31:25;100555.38;;;3.43;74.00
55538;BME280;41383;51.418;7.286;2023-03-03T01:33:51;100556.38;;;3.35;73.34
55538;BME280;41383;51.418;7.286;2023-03-03T01:36:22;100558.88;;;3.36;73.79
55538;BME280;41383;51.418;7.286;2023-03-03T01:38:47;100561.19;;;3.40;74.16
55538;BME280;41383;51.418;7.286;2023-03-03T01:41:12;100561.19;;;3.40;74.06
55538;BME280;41383;51.418;7.286;2023-03-03T01:43:43;100557.75;;;3.24;73.80
55538;BME280;41383;51.418;7.286;2023-03-03T01:46:29;100561.13;;;3.33;74.31
55538;BME280;41383;51.418;7.286;2023-03-03T01:49:12;100563.63;;;3.34;74.70
55538;BME280;41383;51.418;7.286;2023-03-03T01:51:44;100554.75;;;3.41;74.01
55538;BME280;41383;51.418;7.286;2023-03-03T01:54:15;100548.72;;;3.38;73.71
55538;BME280;41383;51.418;7.286;2023-03-03T01:56:42;100550.13;;;3.34;74.52
55538;BME280;41383;51.418;7.286;2023-03-03T01:59:17;100559.50;;;3.38;74.42
55538;BME280;41383;51.418;7.286;2023-03-03T02:01:45;100554.53;;;3.35;74.15
55538;BME280;41383;51.418;7.286;2023-03-03T02:04:11;100552.53;;;3.51;73.77
55538;BME280;41383;51.418;7.286;2023-03-03T02:06:40;100559.91;;;3.35;73.55
55538;BME280;41383;51.418;7.286;2023-03-03T02:09:17;100562.13;;;3.32;74.32
55538;BME280;41383;51.418;7.286;2023-03-03T02:11:45;100556.81;;;3.38;74.38
55538;BME280;41383;51.418;7.286;2023-03-03T02:14:13;100555.78;;;3.40;74.16
55538;BME280;41383;51.418;7.286;2023-03-03T02:16:39;100552.47;;;3.44;74.04
55538;BME280;41383;51.418;7.286;2023-03-03T02:19:12;100548.72;;;3.38;74.37
55538;BME280;41383;51.418;7.286;2023-03-03T02:21:41;100539.63;;;3.46;73.73
55538;BME280;41383;51.418;7.286;2023-03-03T02:24:15;100526.38;;;3.45;73.92
55538;BME280;41383;51.418;7.286;2023-03-03T02:26:44;100529.22;;;3.36;74.19
55538;BME280;41383;51.418;7.286;2023-03-03T02:29:09;100524.03;;;3.35;74.48
55538;BME280;41383;51.418;7.286;2023-03-03T02:31:35;100525.81;;;3.27;74.23
55538;BME280;41383;51.418;7.286;2023-03-03T02:34:03;100527.06;;;3.25;74.62
55538;BME280;41383;51.418;7.286;2023-03-03T02:36:31;100533.59;;;3.37;74.46
55538;BME280;41383;51.418;7.286;2023-03-03T02:39:18;100546.22;;;3.37;74.34
55538;BME280;41383;51.418;7.286;2023-03-03T02:44:29;100561.13;;;3.33;74.25
55538;BME280;41383;51.418;7.286;2023-03-03T02:46:56;100560.56;;;3.44;74.36
55538;BME280;41383;51.418;7.286;2023-03-03T02:49:29;100562.47;;;3.44;73.83
55538;BME280;41383;51.418;7.286;2023-03-03T02:51:58;100569.66;;;3.36;74.11
55538;BME280;41383;51.418;7.286;2023-03-03T02:54:26;100565.31;;;3.35;74.33
55538;BME280;41383;51.418;7.286;2023-03-03T02:56:51;100562.03;;;3.47;74.21
55538;BME280;41383;51.418;7.286;2023-03-03T02:59:17;100552.53;;;3.51;73.50
55538;BME280;41383;51.418;7.286;2023-03-03T03:01:43;100548.78;;;3.52;73.43
55538;BME280;41383;51.418;7.286;2023-03-03T03:04:18;100549.69;;;3.59;73.71
55538;BME280;41383;51.418;7.286;2023-03-03T03:06:44;100545.72;;;3.55;73.62
55538;BME280;41383;51.418;7.286;2023-03-03T03:09:10;100541.34;;;3.54;73.47
55538;BME280;41383;51.418;7.286;2023-03-03T03:11:36;100552.47;;;3.37;74.17
55538;BME280;41383;51.418;7.286;2023-03-03T03:14:04;100547.97;;;3.52;74.17
55538;BME280;41383;51.418;7.286;2023-03-03T03:16:30;100552.47;;;3.44;74.47
55538;BME280;41383;51.418;7.286;2023-03-03T03:18:56;100547.97;;;3.52;74.31
55538;BME280;41383;51.418;7.286;2023-03-03T03:21:21;100556.66;;;3.47;73.86
55538;BME280;41383;51.418;7.286;2023-03-03T03:23:46;100553.97;;;3.47;73.82
55538;BME280;41383;51.418;7.286;2023-03-03T03:26:12;100569.97;;;3.55;74.05
55538;BME280;41383;51.418;7.286;2023-03-03T03:28:37;100578.31;;;3.60;73.44
55538;BME280;41383;51.418;7.286;2023-03-03T03:31:03;100561.09;;;3.61;73.84
55538;BME280;41383;51.418;7.286;2023-03-03T03:33:29;100566.44;;;3.55;73.34
55538;BME280;41383;51.418;7.286;2023-03-03T03:35:55;100569.44;;;3.38;73.72
55538;BME280;41383;51.418;7.286;2023-03-03T03:38:24;100561.19;;;3.40;74.02
55538;BME280;41383;51.418;7.286;2023-03-03T03:40:51;100571.50;;;3.36;74.14
55538;BME280;41383;51.418;7.286;2023-03-03T03:43:16;100566.81;;;3.45;74.07
55538;BME280;41383;51.418;7.286;2023-03-03T03:45:42;100564.81;;;3.25;73.76
55538;BME280;41383;51.418;7.286;2023-03-03T03:48:07;100566.56;;;3.11;75.21
55538;BME280;41383;51.418;7.286;2023-03-03T03:50:33;100566.88;;;3.23;74.17
55538;BME280;41383;51.418;7.286;2023-03-03T03:52:58;100583.72;;;3.32;74.43
55538;BME280;41383;51.418;7.286;2023-03-03T03:55:23;100577.75;;;2.86;75.19
55538;BME280;41383;51.418;7.286;2023-03-03T03:57:48;100578.19;;;2.89;76.00
55538;BME280;41383;51.418;7.286;2023-03-03T04:00:14;100580.38;;;3.01;75.37
55538;BME280;41383;51.418;7.286;2023-03-03T04:02:39;100584.19;;;3.13;74.75
55538;BME280;41383;51.418;7.286;2023-03-03T04:05:05;100584.91;;;3.22;74.15
55538;BME280;41383;51.418;7.286;2023-03-03T04:07:31;100590.09;;;3.24;74.16
55538;BME280;41383;51.418;7.286;2023-03-03T04:09:56;100587.38;;;3.24;74.23
55538;BME280;41383;51.418;7.286;2023-03-03T04:12:22;100595.09;;;3.27;74.65
55538;BME280;41383;51.418;7.286;2023-03-03T04:14:47;100595.59;;;3.37;74.13
55538;BME280;41383;51.418;7.286;2023-03-03T04:17:20;100582.13;;;3.37;74.50
55538;BME280;41383;51.418;7.286;2023-03-03T04:19:45;100577.34;;;3.40;74.33
55538;BME280;41383;51.418;7.286;2023-03-03T04:22:11;100584.19;;;3.42;73.72
55538;BME280;41383;51.418;7.286;2023-03-03T04:24:38;100587.31;;;3.46;74.12
55538;BME280;41383;51.418;7.286;2023-03-03T04:27:04;100595.56;;;3.09;74.69
55538;BME280;41383;51.418;7.286;2023-03-03T04:29:29;100591.50;;;3.20;75.52
55538;BME280;41383;51.418;7.286;2023-03-03T04:31:55;100585.97;;;3.28;74.79
55538;BME280;41383;51.418;7.286;2023-03-03T04:34:20;100588.53;;;3.36;74.89
55538;BME280;41383;51.418;7.286;2023-03-03T04:36:45;100589.41;;;3.44;74.25
55538;BME280;41383;51.418;7.286;2023-03-03T04:39:11;100588.72;;;3.35;74.48
55538;BME280;41383;51.418;7.286;2023-03-03T04:41:36;100593.47;;;3.33;74.34
55538;BME280;41383;51.418;7.286;2023-03-03T04:44:01;100586.59;;;3.30;74.21
55538;BME280;41383;51.418;7.286;2023-03-03T04:46:27;100589.94;;;3.32;73.29
55538;BME280;41383;51.418;7.286;2023-03-03T04:48:52;100586.72;;;3.15;74.47
55538;BME280;41383;51.418;7.286;2023-03-03T04:51:17;100596.25;;;3.18;73.89
55538;BME280;41383;51.418;7.286;2023-03-03T04:53:43;100583.44;;;2.98;74.91
55538;BME280;41383;51.418;7.286;2023-03-03T04:56:08;100588.97;;;2.89;75.29
55538;BME280;41383;51.418;7.286;2023-03-03T04:58:33;100596.81;;;2.84;75.79
55538;BME280;41383;51.418;7.286;2023-03-03T05:00:58;100601.53;;;3.04;75.59
55538;BME280;41383;51.418;7.286;2023-03-03T05:03:25;100587.09;;;3.12;74.49
55538;BME280;41383;51.418;7.286;2023-03-03T05:05:51;100594.19;;;3.20;74.79
55538;BME280;41383;51.418;7.286;2023-03-03T05:08:16;100594.06;;;3.28;74.35
55538;BME280;41383;51.418;7.286;2023-03-03T05:10:42;100584.91;;;3.22;74.16
55538;BME280;41383;51.418;7.286;2023-03-03T05:13:08;100587.00;;;3.27;74.24
55538;BME280;41383;51.418;7.286;2023-03-03T05:15:34;100593.06;;;3.07;74.68
55538;BME280;41383;51.418;7.286;2023-03-03T05:17:59;100583.66;;;2.96;75.37
55538;BME280;41383;51.418;7.286;2023-03-03T05:20:24;100581.03;;;3.03;75.20
55538;BME280;41383;51.418;7.286;2023-03-03T05:22:50;100595.13;;;3.05;74.44
55538;BME280;41383;51.418;7.286;2023-03-03T05:25:16;100593.22;;;2.99;75.06
55538;BME280;41383;51.418;7.286;2023-03-03T05:27:41;100581.69;;;3.12;74.76
55538;BME280;41383;51.418;7.286;2023-03-03T05:30:08;100580.38;;;3.01;74.67
55538;BME280;41383;51.418;7.286;2023-03-03T05:32:34;100586.41;;;3.03;75.03
55538;BME280;41383;51.418;7.286;2023-03-03T05:35:00;100592.75;;;3.17;74.46
55538;BME280;41383;51.418;7.286;2023-03-03T05:37:25;100593.38;;;3.19;74.21
55538;BME280;41383;51.418;7.286;2023-03-03T05:39:50;100577.66;;;3.23;74.51
55538;BME280;41383;51.418;7.286;2023-03-03T05:42:15;100589.06;;;3.25;74.18
55538;BME280;41383;51.418;7.286;2023-03-03T05:44:41;100592.47;;;3.12;74.11
55538;BME280;41383;51.418;7.286;2023-03-03T05:47:06;100596.38;;;3.09;74.36
55538;BME280;41383;51.418;7.286;2023-03-03T05:49:32;100593.75;;;3.16;74.39
55538;BME280;41383;51.418;7.286;2023-03-03T05:51:57;100590.72;;;3.26;74.31
55538;BME280;41383;51.418;7.286;2023-03-03T05:54:23;100598.13;;;3.17;73.67
55538;BME280;41383;51.418;7.286;2023-03-03T05:56:48;100588.47;;;2.79;74.89
55538;BME280;41383;51.418;7.286;2023-03-03T05:59:14;100595.97;;;2.84;74.80
55538;BME280;41383;51.418;7.286;2023-03-03T06:01:39;100596.91;;;2.98;74.06
55538;BME280;41383;51.418;7.286;2023-03-03T06:04:04;100604.00;;;2.99;74.41
55538;BME280;41383;51.418;7.286;2023-03-03T06:06:29;100604.22;;;3.04;74.29
55538;BME280;41383;51.418;7.286;2023-03-03T06:08:55;100604.47;;;3.09;73.67
55538;BME280;41383;51.418;7.286;2023-03-03T06:11:20;100601.09;;;3.00;74.16
55538;BME280;41383;51.418;7.286;2023-03-03T06:13:45;100611.13;;;3.13;74.75
55538;BME280;41383;51.418;7.286;2023-03-03T06:16:10;100611.53;;;3.10;74.51
55538;BME280;41383;51.418;7.286;2023-03-03T06:18:36;100613.97;;;3.27;73.66
55538;BME280;41383;51.418;7.286;2023-03-03T06:21:01;100618.72;;;3.25;73.51
55538;BME280;41383;51.418;7.286;2023-03-03T06:23:26;100628.59;;;3.18;73.37
55538;BME280;41383;51.418;7.286;2023-03-03T06:25:52;100633.53;;;3.14;74.04
55538;BME280;41383;51.418;7.286;2023-03-03T06:28:17;100639.63;;;3.23;73.97
55538;BME280;41383;51.418;7.286;2023-03-03T06:30:43;100637.72;;;3.17;73.77
55538;BME280;41383;51.418;7.286;2023-03-03T06:33:08;100628.94;;;3.08;74.01
55538;BME280;41383;51.418;7.286;2023-03-03T06:35:33;100623.97;;;3.11;74.41
55538;BME280;41383;51.418;7.286;2023-03-03T06:37:59;100627.19;;;3.00;74.29
55538;BME280;41383;51.418;7.286;2023-03-03T06:40:24;100630.78;;;3.07;74.63
55538;BME280;41383;51.418;7.286;2023-03-03T06:42:49;100624.38;;;3.08;73.88
55538;BME280;41383;51.418;7.286;2023-03-03T06:45:15;100637.72;;;3.17;74.11
55538;BME280;41383;51.418;7.286;2023-03-03T06:47:40;100634.81;;;3.18;73.59
55538;BME280;41383;51.418;7.286;2023-03-03T06:50:06;100643.19;;;3.23;74.06
55538;BME280;41383;51.418;7.286;2023-03-03T06:52:32;100650.63;;;3.21;74.13
55538;BME280;41383;51.418;7.286;2023-03-03T06:55:00;100658.44;;;3.16;74.26
55538;BME280;41383;51.418;7.286;2023-03-03T06:57:31;100658.69;;;2.99;73.94
55538;BME280;41383;51.418;7.286;2023-03-03T07:00:05;100654.47;;;3.12;74.27
55538;BME280;41383;51.418;7.286;2023-03-03T07:02:36;100654.84;;;3.31;74.01
55538;BME280;41383;51.418;7.286;2023-03-03T07:05:01;100654.44;;;3.34;73.65
55538;BME280;41383;51.418;7.286;2023-03-03T07:07:30;100657.72;;;3.29;73.89
55538;BME280;41383;51.418;7.286;2023-03-03T07:09:55;100652.34;;;3.29;73.89
55538;BME280;41383;51.418;7.286;2023-03-03T07:12:23;100656.56;;;3.38;73.30
55538;BME280;41383;51.418;7.286;2023-03-03T07:17:44;100655.69;;;3.31;73.59
55538;BME280;41383;51.418;7.286;2023-03-03T07:20:20;100661.06;;;3.31;73.56
55538;BME280;41383;51.418;7.286;2023-03-03T07:22:46;100659.06;;;3.40;73.70
55538;BME280;41383;51.418;7.286;2023-03-03T07:25:32;100673.50;;;3.32;73.57
55538;BME280;41383;51.418;7.286;2023-03-03T07:28:10;100673.59;;;3.46;73.76
55538;BME280;41383;51.418;7.286;2023-03-03T07:30:39;100682.25;;;3.34;73.78
55538;BME280;41383;51.418;7.286;2023-03-03T07:33:07;100680.19;;;3.36;73.35
55538;BME280;41383;51.418;7.286;2023-03-03T07:35:43;100680.94;;;3.30;72.84
55538;BME280;41383;51.418;7.286;2023-03-03T07:38:28;100684.09;;;3.34;72.96
55538;BME280;41383;51.418;7.286;2023-03-03T07:40:57;100697.56;;;3.34;73.01
55538;BME280;41383;51.418;7.286;2023-03-03T07:43:29;100700.22;;;3.27;72.18
55538;BME280;41383;51.418;7.286;2023-03-03T07:48:45;100709.97;;;3.28;72.77
55538;BME280;41383;51.418;7.286;2023-03-03T07:51:22;100708.75;;;3.31;72.51
55538;BME280;41383;51.418;7.286;2023-03-03T07:53:50;100706.78;;;3.40;72.34
55538;BME280;41383;51.418;7.286;2023-03-03T07:56:33;100703.53;;;3.07;72.24
55538;BME280;41383;51.418;7.286;2023-03-03T07:59:02;100722.78;;;3.26;72.64
55538;BME280;41383;51.418;7.286;2023-03-03T08:01:40;100718.50;;;3.32;72.57
55538;BME280;41383;51.418;7.286;2023-03-03T08:04:45;100716.28;;;3.35;72.59
55538;BME280;41383;51.418;7.286;2023-03-03T08:07:16;100715.44;;;3.35;72.41
55538;BME280;41383;51.418;7.286;2023-03-03T08:09:47;100722.94;;;3.40;72.98
55538;BME280;41383;51.418;7.286;2023-03-03T08:15:12;100716.44;;;3.34;72.00
55538;BME280;41383;51.418;7.286;2023-03-03T08:17:41;100729.91;;;3.34;72.50
55538;BME280;41383;51.418;7.286;2023-03-03T08:22:58;100731.41;;;3.36;71.86
55538;BME280;41383;51.418;7.286;2023-03-03T08:25:23;100731.59;;;3.35;72.08
55538;BME280;41383;51.418;7.286;2023-03-03T08:27:48;100733.22;;;3.29;71.78
55538;BME280;41383;51.418;7.286;2023-03-03T08:30:14;100738.13;;;3.25;72.65
55538;BME280;41383;51.418;7.286;2023-03-03T08:32:39;100736.06;;;3.27;71.93
55538;BME280;41383;51.418;7.286;2023-03-03T08:35:05;100738.84;;;3.34;71.90
55538;BME280;41383;51.418;7.286;2023-03-03T08:37:30;100738.28;;;3.39;72.23
55538;BME280;41383;51.418;7.286;2023-03-03T08:39:55;100742.19;;;3.36;71.87
55538;BME280;41383;51.418;7.286;2023-03-03T08:42:20;100747.84;;;3.42;71.71
55538;BME280;41383;51.418;7.286;2023-03-03T08:44:46;100741.34;;;3.36;71.87
55538;BME280;41383;51.418;7.286;2023-03-03T08:47:11;100744.50;;;3.40;71.95
55538;BME280;41383;51.418;7.286;2023-03-03T08:49:36;100742.84;;;3.38;71.42
55538;BME280;41383;51.418;7.286;2023-03-03T08:52:02;100744.75;;;3.45;71.62
55538;BME280;41383;51.418;7.286;2023-03-03T08:54:27;100752.13;;;3.36;72.02
55538;BME280;41383;51.418;7.286;2023-03-03T08:56:53;100753.94;;;3.50;71.64
55538;BME280;41383;51.418;7.286;2023-03-03T08:59:18;100755.94;;;3.64;71.83
55538;BME280;41383;51.418;7.286;2023-03-03T09:01:44;100764.50;;;3.52;70.88
55538;BME280;41383;51.418;7.286;2023-03-03T09:04:10;100763.63;;;3.45;71.64
55538;BME280;41383;51.418;7.286;2023-03-03T09:06:35;100760.16;;;3.29;70.80
55538;BME280;41383;51.418;7.286;2023-03-03T09:09:00;100765.25;;;3.39;71.58
55538;BME280;41383;51.418;7.286;2023-03-03T09:11:27;100764.16;;;3.55;71.30
55538;BME280;41383;51.418;7.286;2023-03-03T09:13:58;100763.56;;;3.60;70.85
55538;BME280;41383;51.418;7.286;2023-03-03T09:16:29;100770.94;;;3.51;71.48
55538;BME280;41383;51.418;7.286;2023-03-03T09:18:57;100765.94;;;3.48;71.45
55538;BME280;41383;51.418;7.286;2023-03-03T09:21:25;100768.63;;;3.48;70.83
55538;BME280;41383;51.418;7.286;2023-03-03T09:23:59;100770.38;;;3.56;71.20
55538;BME280;41383;51.418;7.286;2023-03-03T09:26:47;100768.81;;;3.68;70.69
55538;BME280;41383;51.418;7.286;2023-03-03T09:29:26;100767.16;;;3.67;70.37
55538;BME280;41383;51.418;7.286;2023-03-03T09:31:54;100770.16;;;3.79;71.42
55538;BME280;41383;51.418;7.286;2023-03-03T09:34:36;100773.94;;;3.85;70.19
55538;BME280;41383;51.418;7.286;2023-03-03T09:37:21;100770.59;;;3.83;70.11
55538;BME280;41383;51.418;7.286;2023-03-03T09:39:50;100769.38;;;3.85;69.81
55538;BME280;41383;51.418;7.286;2023-03-03T09:45:16;100777.69;;;3.84;70.24
55538;BME280;41383;51.418;7.286;2023-03-03T09:53:32;100789.47;;;3.83;69.76
55538;BME280;41383;51.418;7.286;2023-03-03T10:07:38;100795.88;;;4.04;69.32
55538;BME280;41383;51.418;7.286;2023-03-03T10:10:47;100790.56;;;3.89;69.18
55538;BME280;41383;51.418;7.286;2023-03-03T10:13:29;100805.66;;;3.83;69.17
55538;BME280;41383;51.418;7.286;2023-03-03T10:18:38;100814.34;;;4.00;69.58
55538;BME280;41383;51.418;7.286;2023-03-03T10:21:13;100810.03;;;4.06;69.42
55538;BME280;41383;51.418;7.286;2023-03-03T10:23:55;100801.72;;;4.07;68.58
55538;BME280;41383;51.418;7.286;2023-03-03T10:29:13;100805.31;;;4.15;69.16
55538;BME280;41383;51.418;7.286;2023-03-03T10:37:11;100804.81;;;4.04;68.85
55538;BME280;41383;51.418;7.286;2023-03-03T10:45:01;100810.31;;;4.18;68.05
55538;BME280;41383;51.418;7.286;2023-03-03T10:50:49;100807.47;;;4.26;68.92
55538;BME280;41383;51.418;7.286;2023-03-03T10:53:31;100809.13;;;4.27;68.36
55538;BME280;41383;51.418;7.286;2023-03-03T11:01:46;100806.53;;;4.41;68.63
55538;BME280;41383;51.418;7.286;2023-03-03T11:06:58;100810.53;;;4.23;68.49
55538;BME280;41383;51.418;7.286;2023-03-03T11:09:36;100816.28;;;4.42;68.65
55538;BME280;41383;51.418;7.286;2023-03-03T11:12:28;100815.28;;;4.50;68.12
55538;BME280;41383;51.418;7.286;2023-03-03T11:18:12;100817.56;;;4.46;68.06
55538;BME280;41383;51.418;7.286;2023-03-03T11:21:01;100817.19;;;4.49;68.15
55538;BME280;41383;51.418;7.286;2023-03-03T11:32:25;100801.84;;;4.57;67.93
55538;BME280;41383;51.418;7.286;2023-03-03T11:35:20;100800.56;;;4.52;67.56
55538;BME280;41383;51.418;7.286;2023-03-03T11:38:08;100803.53;;;4.58;67.84
55538;BME280;41383;51.418;7.286;2023-03-03T11:40:58;100794.38;;;4.59;68.05
55538;BME280;41383;51.418;7.286;2023-03-03T11:43:41;100792.72;;;4.58;67.71
55538;BME280;41383;51.418;7.286;2023-03-03T11:46:14;100792.75;;;4.64;68.45
55538;BME280;41383;51.418;7.286;2023-03-03T11:48:53;100795.22;;;4.66;67.78
55538;BME280;41383;51.418;7.286;2023-03-03T11:51:33;100792.09;;;4.62;67.94
55538;BME280;41383;51.418;7.286;2023-03-03T11:54:04;100788.03;;;4.80;67.66
55538;BME280;41383;51.418;7.286;2023-03-03T11:56:39;100786.16;;;4.38;68.63
55538;BME280;41383;51.418;7.286;2023-03-03T11:59:29;100788.56;;;4.62;67.91
55538;BME280;41383;51.418;7.286;2023-03-03T12:05:08;100782.44;;;4.82;67.06
55538;BME280;41383;51.418;7.286;2023-03-03T12:07:52;100782.66;;;4.87;67.75
55538;BME280;41383;51.418;7.286;2023-03-03T12:30:13;100762.16;;;5.13;65.87
55538;BME280;41383;51.418;7.286;2023-03-03T12:35:11;100753.38;;;4.97;66.69
55538;BME280;41383;51.418;7.286;2023-03-03T12:40:35;100757.56;;;5.07;65.87
55538;BME280;41383;51.418;7.286;2023-03-03T12:45:58;100750.91;;;5.09;66.18
55538;BME280;41383;51.418;7.286;2023-03-03T12:51:30;100757.97;;;5.04;65.92
55538;BME280;41383;51.418;7.286;2023-03-03T12:54:16;100758.19;;;5.09;66.62
55538;BME280;41383;51.418;7.286;2023-03-03T12:56:52;100758.88;;;4.69;66.64
55538;BME280;41383;51.418;7.286;2023-03-03T13:02:46;100759.44;;;5.13;66.69
55538;BME280;41383;51.418;7.286;2023-03-03T13:10:41;100750.84;;;4.89;66.57
55538;BME280;41383;51.418;7.286;2023-03-03T13:13:17;100756.72;;;4.99;66.36
55538;BME280;41383;51.418;7.286;2023-03-03T13:16:02;100749.06;;;5.10;65.83
55538;BME280;41383;51.418;7.286;2023-03-03T13:26:48;100761.69;;;4.96;66.44
55538;BME280;41383;51.418;7.286;2023-03-03T13:29:25;100751.41;;;5.27;66.03
55538;BME280;41383;51.418;7.286;2023-03-03T13:35:07;100762.22;;;5.54;64.52
55538;BME280;41383;51.418;7.286;2023-03-03T13:37:42;100750.78;;;5.52;64.94
55538;BME280;41383;51.418;7.286;2023-03-03T13:40:15;100754.97;;;5.61;64.53
55538;BME280;41383;51.418;7.286;2023-03-03T13:42:58;100748.94;;;5.59;63.56
55538;BME280;41383;51.418;7.286;2023-03-03T13:45:32;100748.50;;;5.55;63.71
55538;BME280;41383;51.418;7.286;2023-03-03T13:48:14;100759.72;;;5.45;63.92
55538;BME280;41383;51.418;7.286;2023-03-03T13:50:55;100747.66;;;5.41;64.35
55538;BME280;41383;51.418;7.286;2023-03-03T13:53:53;100751.38;;;5.33;64.08
55538;BME280;41383;51.418;7.286;2023-03-03T13:59:02;100737.91;;;5.60;63.59
55538;BME280;41383;51.418;7.286;2023-03-03T14:01:39;100726.22;;;5.73;63.01
55538;BME280;41383;51.418;7.286;2023-03-03T14:07:17;100734.78;;;5.77;63.34
55538;BME280;41383;51.418;7.286;2023-03-03T14:13:08;100732.91;;;5.64;62.90
55538;BME280;41383;51.418;7.286;2023-03-03T14:15:43;100733.13;;;5.69;62.68
55538;BME280;41383;51.418;7.286;2023-03-03T14:18:23;100731.03;;;5.92;62.16
55538;BME280;41383;51.418;7.286;2023-03-03T14:20:54;100734.13;;;6.02;62.00
55538;BME280;41383;51.418;7.286;2023-03-03T14:23:26;100730.16;;;6.32;61.88
55538;BME280;41383;51.418;7.286;2023-03-03T14:28:41;100719.09;;;6.34;60.82
55538;BME280;41383;51.418;7.286;2023-03-03T14:31:21;100724.34;;;6.22;61.42
55538;BME280;41383;51.418;7.286;2023-03-03T14:36:39;100719.38;;;5.91;62.04
55538;BME280;41383;51.418;7.286;2023-03-03T14:39:26;100714.34;;;5.88;61.90
55538;BME280;41383;51.418;7.286;2023-03-03T14:41:54;100712.28;;;5.90;61.87
55538;BME280;41383;51.418;7.286;2023-03-03T14:44:26;100707.47;;;5.92;61.87
55538;BME280;41383;51.418;7.286;2023-03-03T14:47:16;100710.63;;;5.89;61.35
55538;BME280;41383;51.418;7.286;2023-03-03T14:49:43;100712.72;;;5.87;61.55
55538;BME280;41383;51.418;7.286;2023-03-03T14:54:46;100701.88;;;6.07;62.07
55538;BME280;41383;51.418;7.286;2023-03-03T14:57:15;100698.09;;;6.15;61.27
55538;BME280;41383;51.418;7.286;2023-03-03T15:05:29;100696.00;;;6.17;61.40
55538;BME280;41383;51.418;7.286;2023-03-03T15:10:38;100691.63;;;6.16;61.48
55538;BME280;41383;51.418;7.286;2023-03-03T15:13:27;100700.59;;;6.24;61.05
55538;BME280;41383;51.418;7.286;2023-03-03T15:18:23;100688.53;;;6.13;60.72
55538;BME280;41383;51.418;7.286;2023-03-03T15:20:57;100691.03;;;6.01;61.75
55538;BME280;41383;51.418;7.286;2023-03-03T15:28:44;100684.13;;;6.05;61.77
55538;BME280;41383;51.418;7.286;2023-03-03T15:31:47;100686.88;;;6.12;61.74
55538;BME280;41383;51.418;7.286;2023-03-03T15:34:38;100687.69;;;6.12;61.75
55538;BME280;41383;51.418;7.286;2023-03-03T15:40:23;100672.72;;;5.76;62.54
55538;BME280;41383;51.418;7.286;2023-03-03T15:43:12;100676.06;;;5.57;63.13
55538;BME280;41383;51.418;7.286;2023-03-03T15:45:44;100670.66;;;5.78;62.55
55538;BME280;41383;51.418;7.286;2023-03-03T15:48:37;100666.66;;;5.94;62.59
55538;BME280;41383;51.418;7.286;2023-03-03T15:51:39;100669.81;;;5.98;62.53
55538;BME280;41383;51.418;7.286;2023-03-03T15:57:04;100662.75;;;5.83;63.45
55538;BME280;41383;51.418;7.286;2023-03-03T15:59:43;100667.28;;;5.96;62.91
55538;BME280;41383;51.418;7.286;2023-03-03T16:02:23;100663.75;;;5.95;62.90
55538;BME280;41383;51.418;7.286;2023-03-03T16:04:58;100662.97;;;5.81;63.04
55538;BME280;41383;51.418;7.286;2023-03-03T16:07:47;100664.03;;;5.46;63.94
55538;BME280;41383;51.418;7.286;2023-03-03T16:10:30;100661.53;;;5.45;64.04
55538;BME280;41383;51.418;7.286;2023-03-03T16:15:52;100659.03;;;5.36;64.73
55538;BME280;41383;51.418;7.286;2023-03-03T16:18:22;100656.94;;;5.32;64.58